Time;durP1;ratioP1;P1;durP2;ratioP2;P2;SDS_P1;SDS_P2;PMS_P1;PMS_P2;Temp;Humidity;BMP_temperature;BMP_pressure;BME280_temperature;BME280_humidity;BME280_pressure;Samples;Min_cycle;Max_cycle;Signal;HPM_P1;HPM_P2
2023/11/05 00:00:18;;;;;;;3.73;1.20;;;;;;;;;;5032122;28;20021;-68
2023/11/05 00:02:43;;;;;;;4.67;1.27;;;;;;;;;;5034578;28;20025;-67
2023/11/05 00:05:13;;;;;;;3.20;1.30;;;;;;;;;;5036383;28;20028;-67
2023/11/05 00:07:38;;;;;;;3.47;1.10;;;;;;;;;;5036649;28;20581;-65
2023/11/05 00:10:04;;;;;;;2.50;1.00;;;;;;;;;;5036624;28;20017;-68
2023/11/05 00:12:29;;;;;;;5.53;1.27;;;;;;;;;;5033514;28;20021;-66
2023/11/05 00:14:54;;;;;;;4.20;1.30;;;;;;;;;;5041599;28;20255;-67
2023/11/05 00:17:19;;;;;;;2.80;1.20;;;;;;;;;;5042783;28;20023;-67
2023/11/05 00:19:45;;;;;;;3.07;1.07;;;;;;;;;;5037876;28;20055;-68
2023/11/05 00:22:11;;;;;;;4.83;1.00;;;;;;;;;;5034805;28;20100;-66
2023/11/05 00:24:36;;;;;;;5.23;1.10;;;;;;;;;;5039000;28;20024;-66
2023/11/05 00:27:01;;;;;;;5.30;1.30;;;;;;;;;;5042894;28;20044;-67
2023/11/05 00:29:26;;;;;;;4.57;1.30;;;;;;;;;;5038498;28;20025;-67
2023/11/05 00:31:53;;;;;;;3.40;1.07;;;;;;;;;;5032572;28;20086;-67
2023/11/05 00:34:18;;;;;;;5.03;1.00;;;;;;;;;;5038824;28;20490;-67
2023/11/05 00:36:43;;;;;;;4.13;1.00;;;;;;;;;;5041180;28;20025;-66
2023/11/05 00:39:08;;;;;;;2.53;1.10;;;;;;;;;;5038336;28;20151;-68
2023/11/05 00:41:33;;;;;;;5.90;1.20;;;;;;;;;;5038917;28;20359;-68
2023/11/05 00:43:59;;;;;;;6.30;1.20;;;;;;;;;;5037269;28;20385;-66
2023/11/05 00:46:24;;;;;;;5.93;1.30;;;;;;;;;;5035338;28;20040;-67
2023/11/05 00:48:50;;;;;;;4.23;1.03;;;;;;;;;;5042941;28;20434;-64
2023/11/05 00:51:15;;;;;;;2.80;1.10;;;;;;;;;;5038561;28;20470;-67
2023/11/05 00:53:40;;;;;;;3.27;1.00;;;;;;;;;;5035124;28;20098;-69
2023/11/05 00:56:06;;;;;;;4.37;1.03;;;;;;;;;;5038479;28;20253;-68
2023/11/05 00:58:31;;;;;;;3.83;1.17;;;;;;;;;;5034417;28;20017;-69
2023/11/05 01:00:56;;;;;;;4.27;1.10;;;;;;;;;;5037722;28;20021;-69
2023/11/05 01:03:22;;;;;;;6.40;1.60;;;;;;;;;;5036816;28;20557;-69
2023/11/05 01:05:47;;;;;;;2.80;1.00;;;;;;;;;;5038789;28;20115;-68
2023/11/05 01:08:12;;;;;;;4.77;1.30;;;;;;;;;;5036449;28;20032;-68
2023/11/05 01:10:38;;;;;;;5.43;1.00;;;;;;;;;;5037478;28;20491;-68
2023/11/05 01:13:03;;;;;;;5.57;1.27;;;;;;;;;;5037660;28;20037;-69
2023/11/05 01:15:30;;;;;;;4.30;1.10;;;;;;;;;;5038418;28;20021;-69
2023/11/05 01:17:55;;;;;;;4.57;1.30;;;;;;;;;;5040140;28;20289;-69
2023/11/05 01:20:21;;;;;;;6.03;1.57;;;;;;;;;;5035413;28;20463;-69
2023/11/05 01:22:46;;;;;;;5.87;1.20;;;;;;;;;;5035788;28;20675;-69
2023/11/05 01:25:11;;;;;;;4.00;1.03;;;;;;;;;;5039507;28;20028;-68
2023/11/05 01:27:37;;;;;;;5.47;2.07;;;;;;;;;;5040356;28;20519;-69
2023/11/05 01:30:02;;;;;;;5.97;1.20;;;;;;;;;;5039927;28;20108;-68
2023/11/05 01:32:28;;;;;;;3.10;1.30;;;;;;;;;;5032718;28;20030;-68
2023/11/05 01:34:53;;;;;;;4.37;1.10;;;;;;;;;;5021233;28;20036;-69
2023/11/05 01:37:18;;;;;;;4.20;0.93;;;;;;;;;;5042844;28;20056;-69
2023/11/05 01:39:43;;;;;;;4.37;1.27;;;;;;;;;;5034873;28;20025;-67
2023/11/05 01:42:08;;;;;;;6.30;1.50;;;;;;;;;;5032225;28;20025;-69
2023/11/05 01:44:34;;;;;;;3.97;1.00;;;;;;;;;;5039103;28;20033;-69
2023/11/05 01:46:59;;;;;;;7.40;1.33;;;;;;;;;;5039193;28;20036;-69
2023/11/05 01:49:26;;;;;;;5.60;1.17;;;;;;;;;;5036852;28;20041;-68
2023/11/05 01:51:51;;;;;;;8.23;1.23;;;;;;;;;;5032780;28;20179;-69
2023/11/05 01:54:16;;;;;;;5.90;1.10;;;;;;;;;;5041035;28;20515;-69
2023/11/05 01:56:41;;;;;;;6.17;1.10;;;;;;;;;;5044482;28;20020;-69
2023/11/05 01:59:07;;;;;;;5.40;1.20;;;;;;;;;;5038070;28;20021;-69
2023/11/05 02:01:32;;;;;;;3.20;0.93;;;;;;;;;;5034301;28;20056;-69
2023/11/05 02:03:58;;;;;;;4.03;1.00;;;;;;;;;;5040007;28;20122;-68
2023/11/05 02:06:23;;;;;;;4.13;1.00;;;;;;;;;;5038506;28;20025;-69
2023/11/05 02:08:48;;;;;;;3.10;1.00;;;;;;;;;;5038336;28;20036;-69
2023/11/05 02:11:13;;;;;;;5.33;1.10;;;;;;;;;;5035507;28;20362;-68
2023/11/05 02:13:46;;;;;;;4.40;1.40;;;;;;;;;;5034674;28;20033;-69
2023/11/05 02:16:12;;;;;;;8.47;1.40;;;;;;;;;;5038175;28;20029;-69
2023/11/05 02:18:37;;;;;;;4.80;0.90;;;;;;;;;;5039064;28;20018;-69
2023/11/05 02:21:04;;;;;;;6.00;1.10;;;;;;;;;;5035020;28;20473;-69
2023/11/05 02:23:29;;;;;;;4.80;1.10;;;;;;;;;;5039420;28;20021;-69
2023/11/05 02:25:56;;;;;;;9.03;1.30;;;;;;;;;;5033768;28;20021;-69
2023/11/05 02:28:21;;;;;;;6.30;1.43;;;;;;;;;;5032744;28;20025;-68
2023/11/05 02:30:47;;;;;;;6.47;1.90;;;;;;;;;;5039721;28;20035;-69
2023/11/05 02:33:12;;;;;;;7.40;1.10;;;;;;;;;;5039339;28;20205;-69
2023/11/05 02:35:37;;;;;;;7.00;1.47;;;;;;;;;;5035885;28;20025;-69
2023/11/05 02:38:02;;;;;;;4.77;1.20;;;;;;;;;;5035727;28;20092;-68
2023/11/05 02:40:27;;;;;;;5.73;1.20;;;;;;;;;;5034776;28;20029;-69
2023/11/05 02:42:53;;;;;;;7.03;1.83;;;;;;;;;;5036089;28;20013;-70
2023/11/05 02:45:19;;;;;;;3.10;1.10;;;;;;;;;;5036468;28;20108;-68
2023/11/05 02:47:44;;;;;;;5.93;1.17;;;;;;;;;;5035877;28;20470;-69
2023/11/05 02:50:09;;;;;;;3.73;1.20;;;;;;;;;;5036269;28;20051;-69
2023/11/05 02:52:35;;;;;;;6.60;1.30;;;;;;;;;;5035720;28;20009;-69
2023/11/05 02:55:00;;;;;;;5.17;1.07;;;;;;;;;;5042676;28;20080;-69
2023/11/05 02:57:26;;;;;;;5.10;1.23;;;;;;;;;;5037322;28;20126;-68
2023/11/05 02:59:51;;;;;;;6.97;1.50;;;;;;;;;;5037473;28;20028;-69
2023/11/05 03:02:16;;;;;;;6.07;1.30;;;;;;;;;;5033197;28;20025;-68
2023/11/05 03:04:42;;;;;;;6.83;1.27;;;;;;;;;;5039790;28;20303;-68
2023/11/05 03:07:07;;;;;;;4.43;1.30;;;;;;;;;;5037959;28;20033;-68
2023/11/05 03:09:32;;;;;;;5.80;1.40;;;;;;;;;;5033443;28;20037;-69
2023/11/05 03:11:57;;;;;;;6.23;1.37;;;;;;;;;;5034154;28;20028;-68
2023/11/05 03:14:23;;;;;;;3.67;1.13;;;;;;;;;;5035742;28;20243;-67
2023/11/05 03:16:48;;;;;;;9.23;1.50;;;;;;;;;;5035040;28;20030;-68
2023/11/05 03:19:13;;;;;;;5.37;1.50;;;;;;;;;;5038658;28;20112;-67
2023/11/05 03:21:39;;;;;;;5.43;1.70;;;;;;;;;;5034644;28;20382;-69
2023/11/05 03:24:05;;;;;;;4.03;1.30;;;;;;;;;;5035747;28;20127;-68
2023/11/05 03:26:30;;;;;;;9.33;1.50;;;;;;;;;;5033453;28;20033;-69
2023/11/05 03:28:55;;;;;;;4.00;1.30;;;;;;;;;;5035545;28;20115;-67
2023/11/05 03:31:21;;;;;;;3.47;1.00;;;;;;;;;;5035163;28;20017;-68
2023/11/05 03:33:48;;;;;;;5.53;1.37;;;;;;;;;;5037161;28;20333;-69
2023/11/05 03:36:13;;;;;;;8.73;1.70;;;;;;;;;;5037219;28;20429;-69
2023/11/05 03:38:39;;;;;;;4.80;1.60;;;;;;;;;;5034235;28;20044;-69
2023/11/05 03:41:06;;;;;;;5.63;1.10;;;;;;;;;;5035988;28;20328;-68
2023/11/05 03:43:31;;;;;;;4.43;1.20;;;;;;;;;;5039928;28;20028;-69
2023/11/05 03:45:57;;;;;;;3.33;1.20;;;;;;;;;;5038253;28;20397;-69
2023/11/05 03:48:22;;;;;;;11.77;2.23;;;;;;;;;;5039252;28;20385;-69
2023/11/05 03:50:47;;;;;;;4.57;1.10;;;;;;;;;;5038693;28;20033;-69
2023/11/05 03:53:13;;;;;;;4.17;1.20;;;;;;;;;;5042548;28;20029;-69
2023/11/05 03:55:38;;;;;;;4.80;1.10;;;;;;;;;;5035628;28;20378;-69
2023/11/05 03:58:04;;;;;;;7.60;1.50;;;;;;;;;;5033172;28;20029;-68
2023/11/05 04:00:29;;;;;;;7.00;1.40;;;;;;;;;;5036140;28;20021;-69
2023/11/05 04:02:55;;;;;;;5.33;1.50;;;;;;;;;;5043132;28;20516;-68
2023/11/05 04:05:20;;;;;;;4.03;1.20;;;;;;;;;;5037433;28;20033;-69
2023/11/05 04:07:46;;;;;;;4.77;0.93;;;;;;;;;;5039238;28;20040;-69
2023/11/05 04:10:11;;;;;;;4.33;1.30;;;;;;;;;;5036057;28;20036;-69
2023/11/05 04:12:36;;;;;;;3.20;0.90;;;;;;;;;;5038193;28;20036;-69
2023/11/05 04:15:04;;;;;;;4.97;1.20;;;;;;;;;;5040178;28;20073;-69
2023/11/05 04:17:30;;;;;;;4.43;1.20;;;;;;;;;;5041154;28;20473;-69
2023/11/05 04:19:55;;;;;;;9.30;1.77;;;;;;;;;;5040750;28;20147;-69
2023/11/05 04:22:20;;;;;;;5.27;1.10;;;;;;;;;;5037226;28;20108;-69
2023/11/05 04:24:46;;;;;;;4.43;1.20;;;;;;;;;;5038644;28;20495;-69
2023/11/05 04:27:11;;;;;;;7.23;1.30;;;;;;;;;;5041260;28;20033;-69
2023/11/05 04:29:36;;;;;;;7.80;1.20;;;;;;;;;;5036184;28;20432;-69
2023/11/05 04:32:01;;;;;;;6.40;1.20;;;;;;;;;;5039188;28;20100;-69
2023/11/05 04:34:31;;;;;;;4.57;1.10;;;;;;;;;;5035754;28;20024;-70
2023/11/05 04:36:56;;;;;;;4.70;1.07;;;;;;;;;;5035928;28;20389;-70
2023/11/05 04:39:21;;;;;;;10.23;1.50;;;;;;;;;;5040794;28;20029;-70
2023/11/05 04:41:47;;;;;;;8.70;1.27;;;;;;;;;;5041754;28;20036;-69
2023/11/05 04:44:12;;;;;;;3.67;1.17;;;;;;;;;;5040907;28;20040;-69
2023/11/05 04:46:38;;;;;;;5.07;0.90;;;;;;;;;;5035304;28;20382;-69
2023/11/05 04:49:03;;;;;;;4.53;1.20;;;;;;;;;;5040116;28;20469;-70
2023/11/05 04:51:29;;;;;;;6.07;1.37;;;;;;;;;;5040382;28;20456;-69
2023/11/05 04:53:54;;;;;;;6.53;1.20;;;;;;;;;;5037048;28;20038;-69
2023/11/05 04:56:19;;;;;;;5.57;1.10;;;;;;;;;;5037348;28;20021;-69
2023/11/05 04:58:44;;;;;;;4.87;1.10;;;;;;;;;;5034362;28;20108;-70
2023/11/05 05:01:10;;;;;;;7.13;1.40;;;;;;;;;;5038258;28;20277;-70
2023/11/05 05:03:35;;;;;;;9.03;1.53;;;;;;;;;;5039699;28;20267;-69
2023/11/05 05:06:00;;;;;;;8.60;1.40;;;;;;;;;;5040673;28;20029;-70
2023/11/05 05:08:26;;;;;;;5.47;0.60;;;;;;;;;;5041143;28;20094;-69
2023/11/05 05:10:51;;;;;;;9.97;1.47;;;;;;;;;;5041767;28;20508;-69
2023/11/05 05:13:16;;;;;;;5.60;1.20;;;;;;;;;;5038742;28;20116;-70
2023/11/05 05:15:43;;;;;;;5.53;1.30;;;;;;;;;;5042370;28;20530;-70
2023/11/05 05:18:08;;;;;;;6.63;1.87;;;;;;;;;;5035302;28;20026;-70
2023/11/05 05:20:33;;;;;;;9.40;1.67;;;;;;;;;;5040873;28;20108;-70
2023/11/05 05:22:58;;;;;;;4.33;1.20;;;;;;;;;;5040427;28;20401;-69
2023/11/05 05:25:24;;;;;;;7.50;1.17;;;;;;;;;;5039117;28;20330;-71
2023/11/05 05:27:49;;;;;;;7.60;1.33;;;;;;;;;;5041150;28;20021;-71
2023/11/05 05:30:16;;;;;;;11.60;1.63;;;;;;;;;;5040278;28;20113;-71
2023/11/05 05:32:42;;;;;;;5.63;1.53;;;;;;;;;;5044404;28;20063;-72
2023/11/05 05:35:07;;;;;;;8.03;1.57;;;;;;;;;;5040666;28;20556;-72
2023/11/05 05:37:33;;;;;;;4.20;1.10;;;;;;;;;;5037835;28;20036;-71
2023/11/05 05:39:58;;;;;;;8.83;1.53;;;;;;;;;;5039776;28;20079;-70
2023/11/05 05:42:23;;;;;;;9.43;1.20;;;;;;;;;;5041288;28;20036;-71
2023/11/05 05:44:49;;;;;;;7.07;1.40;;;;;;;;;;5038145;28;20118;-71
2023/11/05 05:47:14;;;;;;;3.80;1.23;;;;;;;;;;5040528;28;20338;-69
2023/11/05 05:49:40;;;;;;;4.87;1.20;;;;;;;;;;5038747;28;20036;-71
2023/11/05 05:52:05;;;;;;;10.47;1.60;;;;;;;;;;5035768;28;20402;-71
2023/11/05 05:54:31;;;;;;;14.73;1.87;;;;;;;;;;5034982;28;20055;-72
2023/11/05 05:56:56;;;;;;;8.83;1.47;;;;;;;;;;5044523;28;20500;-72
2023/11/05 05:59:21;;;;;;;12.50;1.60;;;;;;;;;;5042544;28;20281;-72
2023/11/05 06:01:47;;;;;;;5.80;1.60;;;;;;;;;;5039348;28;20017;-71
2023/11/05 06:04:12;;;;;;;4.07;1.20;;;;;;;;;;5035636;28;20073;-67
2023/11/05 06:06:38;;;;;;;7.50;1.17;;;;;;;;;;5036090;28;20033;-68
2023/11/05 06:09:06;;;;;;;7.30;1.50;;;;;;;;;;5040184;28;20036;-68
2023/11/05 06:11:31;;;;;;;7.53;2.07;;;;;;;;;;5036015;28;20025;-68
2023/11/05 06:13:57;;;;;;;7.43;1.63;;;;;;;;;;5036900;28;20158;-68
2023/11/05 06:16:22;;;;;;;5.93;1.17;;;;;;;;;;5036855;28;20021;-69
2023/11/05 06:18:48;;;;;;;5.60;1.50;;;;;;;;;;5041542;28;20482;-69
2023/11/05 06:21:13;;;;;;;5.80;1.40;;;;;;;;;;5038138;28;20025;-71
2023/11/05 06:23:39;;;;;;;7.07;1.47;;;;;;;;;;5039584;28;20032;-71
2023/11/05 06:26:04;;;;;;;11.33;1.37;;;;;;;;;;5036014;28;20028;-70
2023/11/05 06:28:29;;;;;;;6.13;1.17;;;;;;;;;;5031964;28;20370;-71
2023/11/05 06:30:54;;;;;;;8.00;1.33;;;;;;;;;;5040049;28;20397;-72
2023/11/05 06:33:22;;;;;;;6.03;1.47;;;;;;;;;;5037731;28;20531;-71
2023/11/05 06:35:47;;;;;;;6.97;1.33;;;;;;;;;;5035478;28;20024;-70
2023/11/05 06:38:12;;;;;;;7.13;1.70;;;;;;;;;;5035250;28;20029;-71
2023/11/05 06:40:37;;;;;;;5.67;1.63;;;;;;;;;;5037953;28;20017;-72
2023/11/05 06:43:03;;;;;;;5.57;1.30;;;;;;;;;;5038200;28;20551;-70
2023/11/05 06:45:28;;;;;;;8.77;1.63;;;;;;;;;;5034681;28;20017;-70
2023/11/05 06:47:53;;;;;;;7.50;1.43;;;;;;;;;;5039417;28;20214;-68
2023/11/05 06:50:19;;;;;;;5.73;1.47;;;;;;;;;;5035979;28;20021;-69
2023/11/05 06:52:44;;;;;;;4.60;1.40;;;;;;;;;;5034770;28;20021;-70
2023/11/05 06:55:10;;;;;;;7.20;1.60;;;;;;;;;;5037828;28;20033;-70
2023/11/05 06:57:35;;;;;;;6.27;1.50;;;;;;;;;;5034935;28;20055;-68
2023/11/05 07:00:04;;;;;;;3.73;1.40;;;;;;;;;;5039957;28;20258;-69
2023/11/05 07:02:30;;;;;;;7.67;1.40;;;;;;;;;;5036280;28;20064;-69
2023/11/05 07:04:56;;;;;;;2.30;1.00;;;;;;;;;;5035017;28;20049;-69
2023/11/05 07:07:21;;;;;;;10.73;1.57;;;;;;;;;;5037628;28;20032;-71
2023/11/05 07:09:48;;;;;;;6.77;1.30;;;;;;;;;;5036198;28;20033;-69
2023/11/05 07:12:13;;;;;;;5.83;1.40;;;;;;;;;;5034408;28;20561;-70
2023/11/05 07:14:38;;;;;;;7.03;1.40;;;;;;;;;;5033145;28;20115;-70
2023/11/05 07:17:04;;;;;;;6.27;1.77;;;;;;;;;;5038088;28;20060;-70
2023/11/05 07:19:29;;;;;;;4.33;1.20;;;;;;;;;;5048239;28;20016;-67
2023/11/05 07:21:55;;;;;;;5.40;1.40;;;;;;;;;;5043363;28;20029;-70
2023/11/05 07:24:20;;;;;;;3.97;1.40;;;;;;;;;;5040338;28;20029;-70
2023/11/05 07:26:45;;;;;;;5.30;1.37;;;;;;;;;;5035803;28;20116;-69
2023/11/05 07:29:12;;;;;;;6.17;1.57;;;;;;;;;;5039000;28;20026;-70
2023/11/05 07:31:37;;;;;;;5.03;1.43;;;;;;;;;;5041237;28;20025;-69
2023/11/05 07:34:03;;;;;;;5.67;1.40;;;;;;;;;;5038049;28;20025;-68
2023/11/05 07:36:28;;;;;;;4.03;1.30;;;;;;;;;;5038232;28;20033;-68
2023/11/05 07:38:53;;;;;;;4.77;1.30;;;;;;;;;;5044327;28;20036;-70
2023/11/05 07:41:18;;;;;;;3.63;1.30;;;;;;;;;;5047660;28;20300;-70
2023/11/05 07:43:44;;;;;;;4.57;1.60;;;;;;;;;;5043016;28;20556;-69
2023/11/05 07:46:09;;;;;;;4.30;1.30;;;;;;;;;;5037353;28;20466;-69
2023/11/05 07:48:35;;;;;;;3.47;1.30;;;;;;;;;;5045088;28;20040;-69
2023/11/05 07:51:00;;;;;;;5.20;1.40;;;;;;;;;;5043596;28;20029;-69
2023/11/05 07:53:25;;;;;;;4.20;1.40;;;;;;;;;;5040709;28;20029;-70
2023/11/05 07:55:50;;;;;;;7.30;2.13;;;;;;;;;;5047201;28;20016;-71
2023/11/05 07:58:15;;;;;;;3.53;1.30;;;;;;;;;;5041839;28;20043;-70
2023/11/05 08:00:41;;;;;;;5.47;1.57;;;;;;;;;;5038438;28;20101;-71
2023/11/05 08:03:07;;;;;;;4.83;1.50;;;;;;;;;;5040187;28;20099;-71
2023/11/05 08:05:34;;;;;;;6.00;1.20;;;;;;;;;;5043000;28;20025;-70
2023/11/05 08:07:59;;;;;;;3.13;1.20;;;;;;;;;;5043487;28;20063;-70
2023/11/05 08:10:24;;;;;;;4.23;1.40;;;;;;;;;;5041516;28;20029;-70
2023/11/05 08:12:49;;;;;;;5.37;1.57;;;;;;;;;;5043409;28;20090;-70
2023/11/05 08:15:14;;;;;;;6.83;1.57;;;;;;;;;;5041241;28;20244;-70
2023/11/05 08:17:40;;;;;;;4.63;1.40;;;;;;;;;;5043251;28;20087;-70
2023/11/05 08:20:06;;;;;;;3.90;1.30;;;;;;;;;;5044335;28;20029;-70
2023/11/05 08:22:31;;;;;;;4.07;1.53;;;;;;;;;;5040208;28;20075;-70
2023/11/05 08:24:57;;;;;;;5.57;1.80;;;;;;;;;;5041635;28;20040;-70
2023/11/05 08:27:22;;;;;;;7.10;1.60;;;;;;;;;;5043336;28;20117;-71
2023/11/05 08:29:47;;;;;;;5.70;1.73;;;;;;;;;;5038266;28;20036;-70
2023/11/05 08:32:13;;;;;;;4.37;1.90;;;;;;;;;;5034867;28;20021;-70
2023/11/05 08:34:39;;;;;;;4.30;1.50;;;;;;;;;;5034581;28;20726;-71
2023/11/05 08:37:07;;;;;;;5.37;1.70;;;;;;;;;;5044716;28;20108;-70
2023/11/05 08:39:32;;;;;;;3.93;1.83;;;;;;;;;;5043119;28;20024;-70
2023/11/05 08:41:58;;;;;;;4.53;1.70;;;;;;;;;;5036083;28;20025;-70
2023/11/05 08:44:23;;;;;;;4.97;1.77;;;;;;;;;;5037323;28;20024;-70
2023/11/05 08:46:49;;;;;;;4.33;1.63;;;;;;;;;;5044425;28;20431;-70
2023/11/05 08:49:14;;;;;;;4.60;1.60;;;;;;;;;;5042487;28;20021;-70
2023/11/05 08:51:40;;;;;;;4.70;1.60;;;;;;;;;;5037976;28;20523;-70
2023/11/05 08:54:05;;;;;;;5.63;1.90;;;;;;;;;;5040556;28;20257;-71
2023/11/05 08:56:30;;;;;;;4.73;1.60;;;;;;;;;;5039418;28;20039;-70
2023/11/05 08:58:55;;;;;;;8.93;1.80;;;;;;;;;;5039929;28;20084;-70
2023/11/05 09:01:21;;;;;;;3.10;1.50;;;;;;;;;;5034068;28;20036;-70
2023/11/05 09:03:46;;;;;;;7.60;1.67;;;;;;;;;;5032755;28;20635;-70
2023/11/05 09:06:12;;;;;;;4.03;1.60;;;;;;;;;;5041951;28;20234;-68
2023/11/05 09:08:38;;;;;;;8.37;1.97;;;;;;;;;;5033728;28;20127;-69
2023/11/05 09:11:04;;;;;;;4.53;1.70;;;;;;;;;;5037889;28;20155;-69
2023/11/05 09:13:29;;;;;;;5.93;1.70;;;;;;;;;;5039797;28;20532;-67
2023/11/05 09:15:54;;;;;;;4.80;1.77;;;;;;;;;;5041843;28;20025;-67
2023/11/05 09:18:20;;;;;;;5.87;1.80;;;;;;;;;;5023100;28;20032;-67
2023/11/05 09:20:45;;;;;;;3.23;1.77;;;;;;;;;;5040774;28;20070;-67
2023/11/05 09:23:10;;;;;;;7.33;1.80;;;;;;;;;;5039465;28;20024;-66
2023/11/05 09:25:35;;;;;;;5.23;1.60;;;;;;;;;;5038144;28;20030;-67
2023/11/05 09:28:02;;;;;;;2.43;1.20;;;;;;;;;;5037043;28;20033;-67
2023/11/05 09:30:27;;;;;;;2.90;1.50;;;;;;;;;;5037075;28;20049;-67
2023/11/05 09:32:53;;;;;;;3.60;1.50;;;;;;;;;;5036087;28;20417;-68
2023/11/05 09:35:18;;;;;;;4.33;1.60;;;;;;;;;;5040873;28;20370;-66
2023/11/05 09:37:44;;;;;;;4.57;1.60;;;;;;;;;;5040304;28;20044;-68
2023/11/05 09:40:13;;;;;;;5.00;1.67;;;;;;;;;;5040890;28;20021;-66
2023/11/05 09:43:00;;;;;;;3.40;1.70;;;;;;;;;;5038769;28;20035;-67
2023/11/05 09:45:29;;;;;;;4.33;1.83;;;;;;;;;;5041292;28;20373;-66
2023/11/05 09:47:58;;;;;;;7.70;2.17;;;;;;;;;;5040836;28;20024;-66
2023/11/05 09:50:24;;;;;;;4.73;2.10;;;;;;;;;;5036798;28;20029;-67
2023/11/05 09:52:50;;;;;;;6.87;2.57;;;;;;;;;;5032871;28;20021;-67
2023/11/05 09:55:16;;;;;;;5.40;2.60;;;;;;;;;;5035006;28;20024;-69
2023/11/05 09:57:41;;;;;;;5.70;2.50;;;;;;;;;;5037940;28;20009;-68
2023/11/05 10:00:09;;;;;;;6.13;2.70;;;;;;;;;;5041737;28;20028;-67
2023/11/05 10:02:55;;;;;;;6.77;3.00;;;;;;;;;;5041209;28;20052;-67
2023/11/05 10:05:20;;;;;;;7.57;3.20;;;;;;;;;;5018938;28;20048;-68
2023/11/05 10:07:45;;;;;;;7.50;2.93;;;;;;;;;;5018955;28;20026;-67
2023/11/05 10:10:11;;;;;;;5.17;2.87;;;;;;;;;;5019109;28;20087;-69
2023/11/05 10:12:36;;;;;;;5.53;2.83;;;;;;;;;;5018679;28;20033;-68
2023/11/05 10:15:01;;;;;;;7.30;2.87;;;;;;;;;;5017809;28;20546;-68
2023/11/05 10:17:27;;;;;;;6.10;2.63;;;;;;;;;;5015475;28;20453;-70
2023/11/05 10:19:52;;;;;;;5.73;2.90;;;;;;;;;;5017942;28;20065;-69
2023/11/05 10:22:17;;;;;;;11.67;3.33;;;;;;;;;;5013746;28;20026;-69
2023/11/05 10:24:45;;;;;;;7.70;3.70;;;;;;;;;;5014668;28;20549;-69
2023/11/05 10:27:11;;;;;;;8.43;3.60;;;;;;;;;;5015668;28;20071;-69
2023/11/05 10:29:37;;;;;;;5.57;3.40;;;;;;;;;;5015233;28;20505;-69
2023/11/05 10:32:02;;;;;;;5.77;3.17;;;;;;;;;;5016648;28;20033;-69
2023/11/05 10:34:29;;;;;;;6.60;3.00;;;;;;;;;;5020782;28;20029;-69
2023/11/05 10:36:54;;;;;;;8.80;3.03;;;;;;;;;;5014030;28;20028;-69
2023/11/05 10:39:19;;;;;;;4.50;2.60;;;;;;;;;;5014577;28;20561;-70
2023/11/05 10:41:45;;;;;;;5.47;3.00;;;;;;;;;;5015858;28;20076;-70
2023/11/05 10:44:11;;;;;;;11.53;3.00;;;;;;;;;;5019252;28;20386;-69
2023/11/05 10:46:36;;;;;;;5.03;2.90;;;;;;;;;;5014192;28;20483;-70
2023/11/05 10:49:02;;;;;;;6.10;3.03;;;;;;;;;;5020432;28;20041;-70
2023/11/05 10:51:27;;;;;;;6.13;3.10;;;;;;;;;;5013641;28;20133;-70
2023/11/05 10:53:53;;;;;;;7.40;3.10;;;;;;;;;;5018718;28;20030;-70
2023/11/05 10:56:32;;;;;;;8.13;2.90;;;;;;;;;;5013582;28;20028;-69
2023/11/05 10:58:58;;;;;;;6.10;2.90;;;;;;;;;;5012679;28;20059;-70
2023/11/05 11:01:28;;;;;;;5.67;2.60;;;;;;;;;;5014744;28;20471;-70
2023/11/05 11:03:57;;;;;;;7.47;2.83;;;;;;;;;;5025959;28;20090;-70
2023/11/05 11:06:23;;;;;;;5.90;2.60;;;;;;;;;;5039328;28;20060;-70
2023/11/05 11:08:55;;;;;;;7.03;3.03;;;;;;;;;;5037723;28;20049;-70
2023/11/05 11:11:20;;;;;;;9.07;3.23;;;;;;;;;;5039722;28;20040;-70
2023/11/05 11:13:50;;;;;;;5.90;3.03;;;;;;;;;;5040965;28;20047;-70
2023/11/05 11:16:23;;;;;;;6.67;2.70;;;;;;;;;;5039368;28;20049;-70
2023/11/05 11:18:49;;;;;;;6.07;2.80;;;;;;;;;;5037248;28;20226;-70
2023/11/05 11:21:15;;;;;;;10.10;3.10;;;;;;;;;;5021191;28;20071;-70
2023/11/05 11:23:40;;;;;;;6.13;2.70;;;;;;;;;;5034232;28;20025;-70
2023/11/05 11:26:17;;;;;;;4.90;2.80;;;;;;;;;;5035024;28;20060;-65
2023/11/05 11:28:42;;;;;;;6.13;2.70;;;;;;;;;;5035750;28;20033;-67
2023/11/05 11:31:08;;;;;;;7.30;3.10;;;;;;;;;;5035554;28;20698;-66
2023/11/05 11:33:36;;;;;;;6.17;3.00;;;;;;;;;;5017648;28;20610;-65
2023/11/05 11:36:07;;;;;;;6.07;3.03;;;;;;;;;;5032499;28;20021;-66
2023/11/05 11:38:32;;;;;;;8.48;3.28;;;;;;;;;;5037322;28;20021;-67
2023/11/05 11:40:58;;;;;;;7.30;2.97;;;;;;;;;;5037822;28;20016;-66
2023/11/05 11:43:24;;;;;;;5.37;3.10;;;;;;;;;;5035150;28;20366;-67
2023/11/05 11:45:49;;;;;;;6.40;3.10;;;;;;;;;;5033649;28;20020;-66
2023/11/05 11:48:15;;;;;;;8.00;3.30;;;;;;;;;;5034841;28;20367;-68
2023/11/05 11:51:10;;;;;;;8.03;3.60;;;;;;;;;;5023033;28;20022;-68
2023/11/05 11:53:39;;;;;;;7.57;3.53;;;;;;;;;;5024351;28;20033;-69
2023/11/05 11:56:05;;;;;;;5.93;3.70;;;;;;;;;;5037391;28;20036;-69
2023/11/05 11:58:34;;;;;;;9.47;4.20;;;;;;;;;;5031595;28;20109;-68
2023/11/05 12:01:00;;;;;;;6.47;3.90;;;;;;;;;;5034628;28;20104;-69
2023/11/05 12:03:29;;;;;;;7.93;3.90;;;;;;;;;;5035751;28;20533;-70
2023/11/05 12:05:54;;;;;;;8.63;4.20;;;;;;;;;;5040575;28;20469;-71
2023/11/05 12:08:38;;;;;;;8.13;4.03;;;;;;;;;;5035789;28;20035;-73
2023/11/05 12:11:11;;;;;;;7.63;3.63;;;;;;;;;;5041553;28;20152;-70
2023/11/05 12:13:39;;;;;;;7.10;4.10;;;;;;;;;;5043161;28;20542;-69
2023/11/05 12:16:09;;;;;;;9.17;4.37;;;;;;;;;;5025581;28;20504;-69
2023/11/05 12:18:34;;;;;;;11.20;4.20;;;;;;;;;;5042032;28;20526;-69
2023/11/05 12:21:00;;;;;;;7.77;3.77;;;;;;;;;;5041348;28;20099;-69
2023/11/05 12:23:26;;;;;;;8.00;4.40;;;;;;;;;;5042344;28;20470;-70
2023/11/05 12:25:58;;;;;;;8.33;4.37;;;;;;;;;;5042528;28;20020;-68
2023/11/05 12:28:24;;;;;;;8.90;4.40;;;;;;;;;;5038753;28;20026;-69
2023/11/05 12:30:49;;;;;;;8.10;4.40;;;;;;;;;;5037979;28;20415;-70
2023/11/05 12:33:14;;;;;;;8.80;4.20;;;;;;;;;;5039885;28;20083;-67
2023/11/05 12:35:39;;;;;;;9.87;5.03;;;;;;;;;;5040282;28;20021;-71
2023/11/05 12:38:05;;;;;;;7.40;5.00;;;;;;;;;;5040662;28;20036;-70
2023/11/05 12:40:30;;;;;;;8.17;4.30;;;;;;;;;;5038200;28;20021;-71
2023/11/05 12:42:56;;;;;;;9.57;4.67;;;;;;;;;;5041905;28;20365;-70
2023/11/05 12:45:21;;;;;;;8.50;4.70;;;;;;;;;;5038817;28;20490;-69
2023/11/05 12:47:46;;;;;;;9.27;4.53;;;;;;;;;;5038863;28;20436;-71
2023/11/05 12:50:13;;;;;;;7.67;4.53;;;;;;;;;;5036758;28;20389;-70
2023/11/05 12:52:41;;;;;;;7.97;4.60;;;;;;;;;;5040744;28;20518;-70
2023/11/05 12:55:06;;;;;;;10.47;4.90;;;;;;;;;;5035003;28;20389;-70
2023/11/05 12:57:32;;;;;;;7.23;4.60;;;;;;;;;;5041535;28;20088;-70
2023/11/05 12:59:57;;;;;;;6.60;4.00;;;;;;;;;;5043218;28;20017;-70
2023/11/05 13:02:24;;;;;;;9.70;4.70;;;;;;;;;;5039993;28;20102;-70
2023/11/05 13:04:49;;;;;;;7.67;4.53;;;;;;;;;;5040196;28;20132;-69
2023/11/05 13:07:17;;;;;;;7.87;4.70;;;;;;;;;;5040023;28;20049;-70
2023/11/05 13:09:45;;;;;;;9.30;4.87;;;;;;;;;;5037428;28;20116;-70
2023/11/05 13:12:10;;;;;;;9.40;4.93;;;;;;;;;;5039536;28;20473;-70
2023/11/05 13:14:35;;;;;;;10.45;4.78;;;;;;;;;;5037271;28;20040;-70
2023/11/05 13:17:02;;;;;;;9.33;4.90;;;;;;;;;;5039661;28;20027;-70
2023/11/05 13:19:27;;;;;;;7.78;4.40;;;;;;;;;;5029263;28;20192;-71
2023/11/05 13:21:52;;;;;;;9.65;4.90;;;;;;;;;;5039282;28;20541;-69
2023/11/05 13:24:17;;;;;;;9.65;4.75;;;;;;;;;;5040066;28;20484;-69
2023/11/05 13:26:43;;;;;;;11.63;4.30;;;;;;;;;;5039034;28;20032;-70
2023/11/05 13:29:08;;;;;;;9.00;4.47;;;;;;;;;;5037329;28;20029;-70
2023/11/05 13:31:33;;;;;;;6.95;4.00;;;;;;;;;;5037326;28;20535;-69
2023/11/05 13:33:59;;;;;;;7.47;4.68;;;;;;;;;;5020328;28;20033;-69
2023/11/05 13:36:24;;;;;;;8.32;4.20;;;;;;;;;;5038972;28;20067;-69
2023/11/05 13:38:51;;;;;;;7.13;3.90;;;;;;;;;;5034052;28;20032;-69
2023/11/05 13:41:16;;;;;;;6.43;3.15;;;;;;;;;;5038755;28;20055;-69
2023/11/05 13:43:41;;;;;;;8.32;3.70;;;;;;;;;;5039740;28;20060;-69
2023/11/05 13:46:07;;;;;;;7.15;3.38;;;;;;;;;;5038414;28;20075;-68
2023/11/05 13:48:32;;;;;;;8.45;2.85;;;;;;;;;;5031118;28;20029;-68
2023/11/05 13:50:57;;;;;;;9.48;3.17;;;;;;;;;;5035044;28;20099;-68
2023/11/05 13:53:24;;;;;;;8.38;3.30;;;;;;;;;;5030987;28;20035;-68
2023/11/05 13:55:50;;;;;;;8.93;3.10;;;;;;;;;;5032481;28;20334;-68
2023/11/05 13:58:16;;;;;;;7.75;3.17;;;;;;;;;;5035646;28;20028;-68
2023/11/05 14:00:42;;;;;;;9.18;3.50;;;;;;;;;;5038612;28;20416;-69
2023/11/05 14:03:07;;;;;;;11.93;5.87;;;;;;;;;;5038595;28;20131;-69
2023/11/05 14:05:32;;;;;;;10.53;4.83;;;;;;;;;;5035201;28;20032;-68
2023/11/05 14:07:58;;;;;;;12.37;5.30;;;;;;;;;;5038813;28;20028;-68
2023/11/05 14:10:23;;;;;;;11.27;6.30;;;;;;;;;;5034227;28;20478;-66
2023/11/05 14:12:48;;;;;;;10.70;5.33;;;;;;;;;;5037144;28;20039;-67
2023/11/05 14:15:13;;;;;;;9.90;4.90;;;;;;;;;;5033682;28;20036;-68
2023/11/05 14:17:40;;;;;;;9.50;5.00;;;;;;;;;;5036962;28;20359;-68
2023/11/05 14:20:09;;;;;;;9.70;5.03;;;;;;;;;;5038661;28;20573;-68
2023/11/05 14:22:35;;;;;;;13.57;7.10;;;;;;;;;;5034240;28;20025;-69
2023/11/05 14:25:00;;;;;;;11.00;5.20;;;;;;;;;;5033706;28;20097;-68
2023/11/05 14:27:25;;;;;;;10.60;4.10;;;;;;;;;;5033222;28;20064;-69
2023/11/05 14:29:50;;;;;;;12.63;4.23;;;;;;;;;;5033098;28;20032;-69
2023/11/05 14:32:18;;;;;;;12.03;3.90;;;;;;;;;;5035676;28;20091;-69
2023/11/05 14:34:43;;;;;;;9.13;3.93;;;;;;;;;;5033977;28;20040;-67